Time;durP1;ratioP1;P1;durP2;ratioP2;P2;SDS_P1;SDS_P2;PMS_P1;PMS_P2;Temp;Humidity;BMP_temperature;BMP_pressure;BME280_temperature;BME280_humidity;BME280_pressure;Samples;Min_cycle;Max_cycle;Signal;HPM_P1;HPM_P2
2023/09/30 00:00:27;;;;;;;15.00;2.97;;;12.70;99.90;;;;;;5026072;28;20038;-65
2023/09/30 00:02:53;;;;;;;9.43;2.40;;;12.60;99.90;;;;;;5007323;28;20128;-65
2023/09/30 00:05:21;;;;;;;17.05;2.83;;;12.60;99.90;;;;;;5003083;28;20192;-65
2023/09/30 00:07:47;;;;;;;11.93;2.47;;;12.60;99.90;;;;;;5004507;28;20116;-65
2023/09/30 00:10:14;;;;;;;9.38;2.40;;;12.60;99.90;;;;;;5023685;28;20037;-65
2023/09/30 00:12:40;;;;;;;14.18;2.75;;;12.60;99.90;;;;;;5024027;28;20087;-65
2023/09/30 00:15:06;;;;;;;14.02;2.78;;;12.60;99.90;;;;;;5023606;28;20076;-65
2023/09/30 00:17:32;;;;;;;10.05;2.45;;;12.60;99.90;;;;;;5024371;28;20050;-65
2023/09/30 00:19:59;;;;;;;16.05;4.47;;;12.60;99.90;;;;;;5008578;28;20049;-65
2023/09/30 00:22:25;;;;;;;16.55;3.30;;;12.60;99.90;;;;;;5024495;28;20044;-65
2023/09/30 00:24:50;;;;;;;11.20;2.58;;;12.60;99.90;;;;;;5027718;28;20137;-65
2023/09/30 00:27:16;;;;;;;16.00;2.95;;;12.60;99.90;;;;;;5026419;28;20495;-65
2023/09/30 00:29:42;;;;;;;11.25;2.78;;;12.60;99.90;;;;;;4990455;28;20407;-65
2023/09/30 00:32:08;;;;;;;11.77;2.92;;;12.60;99.90;;;;;;5006823;28;20850;-66
2023/09/30 00:34:37;;;;;;;12.15;2.55;;;12.60;99.90;;;;;;5009398;28;20045;-65
2023/09/30 00:37:03;;;;;;;14.13;2.97;;;12.50;99.90;;;;;;5008604;28;20053;-65
2023/09/30 00:39:31;;;;;;;16.27;2.97;;;12.60;99.90;;;;;;5025761;28;20044;-65
2023/09/30 00:42:00;;;;;;;17.35;3.05;;;12.50;99.90;;;;;;5024562;28;20132;-65
2023/09/30 00:44:27;;;;;;;12.75;2.92;;;12.50;99.90;;;;;;5026751;28;20424;-66
2023/09/30 00:46:54;;;;;;;9.50;2.67;;;12.60;99.90;;;;;;5007938;28;20060;-65
2023/09/30 00:49:22;;;;;;;10.65;3.20;;;12.50;99.90;;;;;;5029320;28;20052;-65
2023/09/30 00:51:49;;;;;;;13.95;2.80;;;12.50;99.90;;;;;;5009580;28;20045;-65
2023/09/30 00:54:16;;;;;;;13.32;3.08;;;12.50;99.90;;;;;;5025333;28;20049;-65
2023/09/30 00:56:46;;;;;;;16.80;2.83;;;12.50;99.90;;;;;;5015874;28;20128;-65
2023/09/30 00:59:14;;;;;;;13.52;3.30;;;12.50;99.90;;;;;;5009018;28;20586;-65
2023/09/30 01:01:44;;;;;;;14.90;3.80;;;12.50;99.90;;;;;;5007921;28;20079;-65
2023/09/30 01:04:14;;;;;;;11.77;2.47;;;12.40;99.90;;;;;;5029207;28;20052;-65
2023/09/30 01:06:40;;;;;;;14.88;3.00;;;12.40;99.90;;;;;;5026370;28;20085;-66
2023/09/30 01:09:08;;;;;;;12.82;3.03;;;12.50;99.90;;;;;;5022571;28;20073;-65
2023/09/30 01:11:34;;;;;;;11.05;2.90;;;12.40;99.90;;;;;;5007489;28;20099;-65
2023/09/30 01:14:00;;;;;;;11.63;2.65;;;12.40;99.90;;;;;;5008035;28;20053;-65
2023/09/30 01:16:26;;;;;;;7.50;2.42;;;12.40;99.90;;;;;;5024680;28;20037;-65
2023/09/30 01:18:51;;;;;;;14.57;3.65;;;12.40;99.90;;;;;;5026980;28;20058;-65
2023/09/30 01:21:18;;;;;;;12.88;3.13;;;12.40;99.90;;;;;;5009174;28;20749;-65
2023/09/30 01:23:46;;;;;;;14.38;3.17;;;12.40;99.90;;;;;;5025831;28;20840;-65
2023/09/30 01:26:13;;;;;;;12.32;3.25;;;12.40;99.90;;;;;;5025935;28;20045;-65
2023/09/30 01:28:39;;;;;;;16.10;3.50;;;12.30;99.90;;;;;;5025787;28;20511;-65
2023/09/30 01:31:05;;;;;;;10.07;3.15;;;12.30;99.90;;;;;;5025584;28;20143;-65
2023/09/30 01:33:32;;;;;;;12.68;3.03;;;12.30;99.90;;;;;;5026060;28;20077;-65
2023/09/30 01:35:59;;;;;;;9.70;2.83;;;12.30;99.90;;;;;;4992809;28;20574;-65
2023/09/30 01:38:25;;;;;;;11.52;3.00;;;12.30;99.90;;;;;;5009163;28;20046;-65
2023/09/30 01:40:51;;;;;;;13.95;2.97;;;12.40;99.90;;;;;;5008257;28;20065;-65
2023/09/30 01:43:17;;;;;;;11.50;3.15;;;12.30;99.90;;;;;;5016997;28;20053;-65
2023/09/30 01:45:45;;;;;;;11.48;3.20;;;12.30;99.90;;;;;;5026536;28;20128;-65
2023/09/30 01:48:11;;;;;;;12.88;3.05;;;12.30;99.90;;;;;;5029528;28;20045;-65
2023/09/30 01:50:38;;;;;;;12.10;2.67;;;12.30;99.90;;;;;;5025314;28;20049;-65
2023/09/30 01:53:06;;;;;;;12.63;2.65;;;12.30;99.90;;;;;;5030285;28;20111;-65
2023/09/30 01:55:41;;;;;;;12.30;2.30;;;12.30;99.90;;;;;;5008431;28;20045;-66
2023/09/30 01:58:07;;;;;;;11.07;2.55;;;12.30;99.90;;;;;;5017550;28;20069;-65
2023/09/30 02:00:35;;;;;;;11.35;2.67;;;12.30;99.90;;;;;;5008828;28;20143;-65
2023/09/30 02:03:00;;;;;;;10.23;2.83;;;12.30;99.90;;;;;;5023455;28;20114;-65
2023/09/30 02:05:26;;;;;;;12.80;2.85;;;12.30;99.90;;;;;;5004755;28;20041;-65
2023/09/30 02:07:52;;;;;;;11.77;2.30;;;12.30;99.90;;;;;;5006842;28;20057;-65
2023/09/30 02:10:18;;;;;;;9.95;2.35;;;12.30;99.90;;;;;;5008493;28;20042;-65
2023/09/30 02:12:45;;;;;;;15.35;3.35;;;12.30;99.90;;;;;;5024649;28;20044;-65
2023/09/30 02:15:15;;;;;;;10.43;2.28;;;12.30;99.90;;;;;;5025269;28;20052;-65
2023/09/30 02:17:45;;;;;;;10.37;2.53;;;12.30;99.90;;;;;;5008525;28;20052;-65
2023/09/30 02:20:15;;;;;;;12.50;2.20;;;12.30;99.90;;;;;;5001456;28;21054;-65
2023/09/30 02:22:41;;;;;;;12.40;2.70;;;12.30;99.90;;;;;;5008346;28;20045;-65
2023/09/30 02:25:07;;;;;;;12.70;2.65;;;12.30;99.90;;;;;;5024597;28;20125;-65
2023/09/30 02:27:34;;;;;;;10.90;2.50;;;12.30;99.90;;;;;;5026141;28;20434;-65
2023/09/30 02:30:00;;;;;;;14.13;2.58;;;12.30;99.90;;;;;;5006271;28;20061;-65
2023/09/30 02:32:26;;;;;;;11.77;3.20;;;12.30;99.90;;;;;;5008024;28;20517;-65
2023/09/30 02:34:51;;;;;;;10.30;2.65;;;12.30;99.90;;;;;;5024105;28;20056;-65
2023/09/30 02:37:18;;;;;;;17.60;2.90;;;12.40;99.90;;;;;;5022059;28;20049;-65
2023/09/30 02:39:44;;;;;;;13.55;3.13;;;12.30;99.90;;;;;;5003526;28;20387;-65
2023/09/30 02:42:10;;;;;;;8.20;2.22;;;12.30;99.90;;;;;;5010354;28;20460;-65
2023/09/30 02:44:36;;;;;;;12.35;3.13;;;12.40;99.90;;;;;;5011766;28;20077;-65
2023/09/30 02:47:02;;;;;;;11.32;2.83;;;12.30;99.90;;;;;;5029309;28;20081;-66
2023/09/30 02:49:27;;;;;;;12.77;2.97;;;12.30;99.90;;;;;;5028212;28;20048;-65
2023/09/30 02:51:53;;;;;;;11.07;2.58;;;12.30;99.90;;;;;;5029580;28;20068;-65
2023/09/30 02:54:19;;;;;;;7.95;2.45;;;12.30;99.90;;;;;;5032680;28;20567;-67
2023/09/30 02:56:48;;;;;;;9.65;2.30;;;12.30;99.90;;;;;;5028725;28;20045;-65
2023/09/30 02:59:16;;;;;;;12.27;2.65;;;12.40;99.90;;;;;;5026755;28;20437;-65
2023/09/30 03:01:42;;;;;;;10.27;2.78;;;12.40;99.90;;;;;;5028011;28;20498;-65
2023/09/30 03:04:09;;;;;;;11.45;3.63;;;12.40;99.90;;;;;;5035497;28;20110;-65
2023/09/30 03:06:38;;;;;;;10.63;3.25;;;12.40;99.90;;;;;;5010355;28;20046;-65
2023/09/30 03:09:04;;;;;;;12.52;2.92;;;12.40;99.90;;;;;;5027452;28;20064;-65
2023/09/30 03:11:34;;;;;;;9.80;2.55;;;12.40;99.90;;;;;;5027653;28;20050;-65
2023/09/30 03:13:59;;;;;;;15.63;3.20;;;12.40;99.90;;;;;;5016759;28;20057;-65
2023/09/30 03:16:25;;;;;;;16.00;3.35;;;12.40;99.90;;;;;;5010997;28;20402;-65
2023/09/30 03:18:51;;;;;;;13.13;2.85;;;12.40;99.90;;;;;;5011295;28;20049;-65
2023/09/30 03:21:17;;;;;;;10.40;2.33;;;12.40;99.90;;;;;;5027723;28;20454;-65
2023/09/30 03:23:43;;;;;;;10.88;2.63;;;12.40;99.90;;;;;;5028469;28;20077;-65
2023/09/30 03:26:10;;;;;;;11.48;2.42;;;12.40;99.90;;;;;;5011585;28;20049;-65
2023/09/30 03:28:37;;;;;;;11.63;3.38;;;12.40;99.90;;;;;;5025793;28;20037;-65
2023/09/30 03:31:07;;;;;;;8.13;2.53;;;12.40;99.90;;;;;;5011081;28;20402;-65
2023/09/30 03:33:34;;;;;;;9.35;2.53;;;12.40;99.90;;;;;;5029688;28;20546;-65
2023/09/30 03:35:59;;;;;;;14.05;2.85;;;12.40;99.90;;;;;;5026668;28;20052;-65
2023/09/30 03:38:26;;;;;;;14.23;2.70;;;12.40;99.90;;;;;;5027888;28;20050;-65
2023/09/30 03:40:54;;;;;;;11.75;2.58;;;12.40;99.90;;;;;;5027659;28;20041;-66
2023/09/30 03:43:21;;;;;;;10.80;2.50;;;12.40;99.90;;;;;;5027090;28;20068;-65
2023/09/30 03:45:47;;;;;;;12.10;2.83;;;12.40;99.90;;;;;;5027797;28;20053;-66
2023/09/30 03:48:13;;;;;;;11.75;2.95;;;12.30;99.90;;;;;;5016536;28;20045;-66
2023/09/30 03:50:39;;;;;;;9.40;2.17;;;12.40;99.90;;;;;;5009185;28;20124;-66
2023/09/30 03:53:09;;;;;;;9.23;2.60;;;12.40;99.90;;;;;;5009897;28;20045;-66
2023/09/30 03:55:35;;;;;;;11.63;2.80;;;12.40;99.90;;;;;;5010359;28;20050;-66
2023/09/30 03:58:02;;;;;;;12.35;2.97;;;12.30;99.90;;;;;;5026878;28;20055;-65
2023/09/30 04:00:28;;;;;;;11.63;2.53;;;12.30;99.90;;;;;;5026792;28;20056;-65
2023/09/30 04:02:58;;;;;;;12.00;3.70;;;12.30;99.90;;;;;;5010791;28;20053;-66
2023/09/30 04:05:33;;;;;;;17.45;3.40;;;12.30;99.90;;;;;;5006334;28;20137;-66
2023/09/30 04:07:59;;;;;;;12.10;2.55;;;12.30;99.90;;;;;;5022912;28;20052;-66
2023/09/30 04:10:25;;;;;;;11.40;2.72;;;12.40;99.90;;;;;;5010359;28;20041;-66
2023/09/30 04:12:52;;;;;;;9.48;3.10;;;12.30;99.90;;;;;;5014794;28;20383;-66
2023/09/30 04:15:18;;;;;;;11.63;2.47;;;12.30;99.90;;;;;;5026965;28;20053;-66
2023/09/30 04:17:44;;;;;;;8.82;2.65;;;12.30;99.90;;;;;;5015075;28;20048;-65
2023/09/30 04:20:15;;;;;;;11.93;2.75;;;12.30;99.90;;;;;;5019848;28;20051;-66
2023/09/30 04:22:41;;;;;;;9.90;2.58;;;12.30;99.90;;;;;;5021788;28;20049;-66
2023/09/30 04:25:10;;;;;;;12.90;3.03;;;12.30;99.90;;;;;;5024472;28;20053;-66
2023/09/30 04:27:37;;;;;;;11.80;2.65;;;12.30;99.90;;;;;;5024791;28;20045;-65
2023/09/30 04:30:08;;;;;;;11.88;2.80;;;12.30;99.90;;;;;;5042286;28;20437;-65
2023/09/30 04:32:36;;;;;;;15.80;3.17;;;12.30;99.90;;;;;;5028837;28;20045;-65
2023/09/30 04:35:04;;;;;;;13.13;3.22;;;12.30;99.90;;;;;;5026172;28;20514;-66
2023/09/30 04:37:29;;;;;;;13.75;3.30;;;12.30;99.90;;;;;;5024429;28;20060;-66
2023/09/30 04:39:55;;;;;;;10.60;2.72;;;12.30;99.90;;;;;;5026445;28;20545;-66
2023/09/30 04:42:21;;;;;;;7.28;2.50;;;12.30;99.90;;;;;;5025486;28;20096;-66
2023/09/30 04:44:46;;;;;;;12.98;3.22;;;12.30;99.90;;;;;;5027710;28;20060;-66
2023/09/30 04:47:15;;;;;;;9.40;3.40;;;12.30;99.90;;;;;;5026703;28;20080;-66
2023/09/30 04:49:43;;;;;;;16.77;3.28;;;12.30;99.90;;;;;;5026450;28;20050;-65
2023/09/30 04:52:09;;;;;;;10.50;3.00;;;12.30;99.90;;;;;;5026210;28;20050;-65
2023/09/30 04:54:35;;;;;;;11.98;3.25;;;12.30;99.90;;;;;;5009156;28;20068;-67
2023/09/30 04:57:02;;;;;;;14.73;3.47;;;12.20;99.90;;;;;;5009145;28;20119;-65
2023/09/30 04:59:28;;;;;;;16.00;4.10;;;12.20;99.90;;;;;;5031244;28;20037;-65
2023/09/30 05:01:54;;;;;;;12.52;3.58;;;12.20;99.90;;;;;;5013560;28;20056;-65
2023/09/30 05:04:20;;;;;;;11.98;3.50;;;12.20;99.90;;;;;;5030730;28;20060;-65
2023/09/30 05:06:46;;;;;;;15.38;3.85;;;12.20;99.90;;;;;;5009205;28;20046;-65
2023/09/30 05:09:12;;;;;;;12.80;3.65;;;12.20;99.90;;;;;;5009353;28;20041;-66
2023/09/30 05:11:39;;;;;;;14.40;4.07;;;12.20;99.90;;;;;;5004728;28;20038;-65
2023/09/30 05:14:05;;;;;;;15.10;3.55;;;12.20;99.90;;;;;;5040782;28;20057;-65
2023/09/30 05:16:31;;;;;;;14.20;3.88;;;12.20;99.90;;;;;;5009139;28;20056;-65
2023/09/30 05:18:57;;;;;;;12.68;3.50;;;12.20;99.90;;;;;;5025769;28;20406;-65
2023/09/30 05:21:23;;;;;;;12.98;3.83;;;12.20;99.90;;;;;;5005949;28;20123;-65
2023/09/30 05:23:49;;;;;;;12.98;3.97;;;12.20;99.90;;;;;;5024040;28;20045;-65
2023/09/30 05:26:16;;;;;;;14.85;3.95;;;12.10;99.90;;;;;;5033518;28;20105;-65
2023/09/30 05:28:46;;;;;;;16.33;4.20;;;12.20;99.90;;;;;;5030407;28;20053;-65
2023/09/30 05:31:11;;;;;;;13.80;3.72;;;12.10;99.90;;;;;;5025848;28;20054;-65
2023/09/30 05:33:37;;;;;;;11.43;4.13;;;12.10;99.90;;;;;;5009777;28;20076;-65
2023/09/30 05:36:03;;;;;;;12.57;4.13;;;12.10;99.90;;;;;;5026687;28;20111;-66
2023/09/30 05:38:31;;;;;;;15.10;4.10;;;12.10;99.90;;;;;;5038921;28;20057;-65
2023/09/30 05:40:58;;;;;;;13.73;4.47;;;12.10;99.90;;;;;;5025406;28;20053;-65
2023/09/30 05:43:25;;;;;;;11.90;4.03;;;12.10;99.90;;;;;;5042847;28;20045;-65
2023/09/30 05:45:54;;;;;;;11.40;4.20;;;12.10;99.90;;;;;;5009002;28;20139;-65
2023/09/30 05:48:21;;;;;;;10.73;4.13;;;12.10;99.90;;;;;;5022768;28;20556;-65
2023/09/30 05:50:47;;;;;;;13.32;4.63;;;12.10;99.90;;;;;;5023376;28;20045;-65
2023/09/30 05:53:13;;;;;;;14.55;5.05;;;12.10;99.90;;;;;;5025850;28;20041;-65
2023/09/30 05:55:42;;;;;;;15.88;5.93;;;12.10;99.90;;;;;;5026352;28;20060;-65
2023/09/30 05:58:14;;;;;;;11.10;4.30;;;12.00;99.90;;;;;;5008162;28;20057;-65
2023/09/30 06:00:41;;;;;;;13.73;4.88;;;12.00;99.90;;;;;;5020781;28;21620;-65
2023/09/30 06:03:08;;;;;;;13.45;4.97;;;12.00;99.90;;;;;;5005180;28;20352;-65
2023/09/30 06:05:38;;;;;;;14.52;5.32;;;12.00;99.90;;;;;;5006081;28;20050;-65
2023/09/30 06:08:04;;;;;;;16.77;5.55;;;12.00;99.90;;;;;;5024166;28;20507;-65
2023/09/30 06:10:31;;;;;;;14.00;5.00;;;12.00;99.90;;;;;;5025216;28;20132;-65
2023/09/30 06:12:58;;;;;;;12.07;5.50;;;12.00;99.90;;;;;;5032148;28;20053;-65
2023/09/30 06:15:28;;;;;;;15.25;5.18;;;12.00;99.90;;;;;;5031284;28;20086;-65
2023/09/30 06:17:55;;;;;;;13.50;6.07;;;12.00;99.90;;;;;;5036528;28;20117;-65
2023/09/30 06:20:26;;;;;;;21.90;6.18;;;12.30;99.90;;;;;;5011508;28;20383;-65
2023/09/30 06:22:53;;;;;;;16.02;6.18;;;12.00;99.90;;;;;;5010420;28;20057;-65
2023/09/30 06:25:20;;;;;;;15.93;5.95;;;12.00;99.90;;;;;;5027931;28;20050;-65
2023/09/30 06:27:47;;;;;;;18.10;6.07;;;12.00;99.90;;;;;;5000160;28;20137;-66
2023/09/30 06:30:15;;;;;;;15.45;6.53;;;12.00;99.90;;;;;;5004670;28;20075;-66
2023/09/30 06:32:42;;;;;;;16.67;6.50;;;12.20;99.90;;;;;;5009018;28;20535;-66
2023/09/30 06:35:12;;;;;;;15.25;5.53;;;12.00;99.90;;;;;;5040576;28;20103;-66
2023/09/30 06:37:41;;;;;;;15.20;5.75;;;12.10;99.90;;;;;;5036403;28;20049;-66
2023/09/30 06:40:09;;;;;;;16.70;6.40;;;12.10;99.90;;;;;;5002547;28;20053;-66
2023/09/30 06:42:35;;;;;;;15.98;5.72;;;12.10;99.90;;;;;;4998341;28;20042;-65
2023/09/30 06:45:05;;;;;;;11.48;5.50;;;12.10;99.90;;;;;;5016532;28;20085;-65
2023/09/30 06:47:38;;;;;;;15.05;6.25;;;12.10;99.90;;;;;;5001178;28;20046;-65
2023/09/30 06:50:08;;;;;;;20.40;6.75;;;12.20;99.90;;;;;;4997616;28;20077;-65
2023/09/30 06:52:36;;;;;;;18.42;6.28;;;12.20;99.90;;;;;;5008634;28;20366;-65
2023/09/30 06:55:05;;;;;;;15.70;6.63;;;12.20;99.90;;;;;;5006534;28;20435;-65
2023/09/30 06:57:35;;;;;;;15.38;6.40;;;12.20;99.90;;;;;;5009968;28;20224;-66
2023/09/30 07:00:11;;;;;;;15.00;5.85;;;12.30;99.90;;;;;;5013526;28;20061;-72
2023/09/30 07:02:38;;;;;;;20.13;6.20;;;12.30;99.90;;;;;;5014149;28;20225;-65
2023/09/30 07:05:08;;;;;;;14.95;5.90;;;12.40;99.90;;;;;;5018008;28;20446;-65
2023/09/30 07:07:34;;;;;;;13.45;5.57;;;12.40;99.90;;;;;;4994420;28;20659;-65
2023/09/30 07:10:00;;;;;;;17.52;5.70;;;12.50;99.90;;;;;;5012532;28;20056;-65
2023/09/30 07:12:26;;;;;;;13.45;5.78;;;12.50;99.90;;;;;;5000941;28;20119;-65
2023/09/30 07:14:52;;;;;;;14.55;5.43;;;12.60;99.90;;;;;;5022521;28;20621;-65
2023/09/30 07:17:18;;;;;;;14.02;6.00;;;12.70;99.90;;;;;;4994425;28;20049;-65
2023/09/30 07:19:44;;;;;;;16.33;6.15;;;12.70;99.90;;;;;;5018153;28;20441;-65
2023/09/30 07:22:09;;;;;;;14.93;6.10;;;12.80;99.90;;;;;;5022875;28;20045;-65
2023/09/30 07:24:35;;;;;;;15.77;5.75;;;12.80;99.90;;;;;;5006136;28;20046;-65
2023/09/30 07:27:01;;;;;;;12.55;5.68;;;12.90;99.90;;;;;;5003607;28;20046;-65
2023/09/30 07:29:26;;;;;;;14.15;5.22;;;12.90;99.90;;;;;;5018393;28;20060;-69
2023/09/30 07:31:52;;;;;;;12.18;5.10;;;12.90;99.90;;;;;;5004099;28;20052;-69
2023/09/30 07:34:18;;;;;;;14.25;5.65;;;12.90;99.90;;;;;;5011509;28;20069;-69
2023/09/30 07:36:43;;;;;;;13.60;5.88;;;13.00;99.90;;;;;;5019579;28;20057;-69
2023/09/30 07:39:09;;;;;;;13.90;5.82;;;13.00;99.90;;;;;;5018560;28;20071;-69
2023/09/30 07:41:38;;;;;;;15.77;6.20;;;13.10;99.90;;;;;;5006753;28;20045;-68
2023/09/30 07:44:05;;;;;;;15.90;6.03;;;13.10;99.90;;;;;;5011949;28;20069;-68
2023/09/30 07:46:31;;;;;;;11.48;6.00;;;13.20;99.90;;;;;;4999191;28;20053;-69
2023/09/30 07:48:58;;;;;;;15.90;6.50;;;13.30;99.90;;;;;;4991065;28;20127;-69
2023/09/30 07:51:24;;;;;;;13.02;5.68;;;13.50;99.90;;;;;;5006641;28;20124;-69
2023/09/30 07:53:50;;;;;;;15.85;6.00;;;13.40;99.90;;;;;;4987456;28;20107;-69
2023/09/30 07:56:16;;;;;;;15.10;5.78;;;13.50;99.90;;;;;;5014870;28;20124;-68
2023/09/30 07:58:42;;;;;;;12.88;6.07;;;13.50;99.90;;;;;;4998631;28;20069;-69
2023/09/30 08:01:08;;;;;;;13.25;6.50;;;13.60;99.90;;;;;;5013964;28;20585;-69
2023/09/30 08:03:34;;;;;;;21.27;6.57;;;13.70;99.90;;;;;;5017774;28;20053;-69
2023/09/30 08:06:00;;;;;;;15.88;6.47;;;13.80;99.90;;;;;;5015417;28;20547;-68
2023/09/30 08:08:26;;;;;;;14.95;6.13;;;13.90;99.90;;;;;;5018301;28;20820;-69
2023/09/30 08:10:55;;;;;;;15.10;5.78;;;14.00;99.90;;;;;;5000695;28;20057;-69
2023/09/30 08:13:22;;;;;;;15.43;6.43;;;14.00;99.90;;;;;;5015179;28;20414;-69
2023/09/30 08:15:50;;;;;;;14.48;6.05;;;14.10;99.90;;;;;;5014466;28;20056;-65
2023/09/30 08:18:16;;;;;;;12.63;5.72;;;14.20;99.90;;;;;;5018168;28;20574;-65
2023/09/30 08:20:45;;;;;;;15.48;5.93;;;14.30;99.90;;;;;;5016168;28;20187;-65
2023/09/30 08:23:11;;;;;;;11.95;5.60;;;14.40;99.90;;;;;;5018114;28;20045;-65
2023/09/30 08:25:37;;;;;;;15.95;5.60;;;14.50;99.90;;;;;;5018956;28;20091;-65
2023/09/30 08:28:04;;;;;;;12.82;5.40;;;14.60;99.90;;;;;;5011717;28;20079;-66
2023/09/30 08:30:30;;;;;;;14.63;5.40;;;14.60;99.90;;;;;;5018887;28;20084;-66
2023/09/30 08:32:56;;;;;;;17.17;5.63;;;14.70;99.90;;;;;;5008367;28;20053;-66
2023/09/30 08:35:22;;;;;;;14.25;5.47;;;14.80;99.90;;;;;;5013723;28;20061;-65
2023/09/30 08:37:48;;;;;;;14.80;6.05;;;14.90;99.90;;;;;;4998954;28;20045;-65
2023/09/30 08:40:13;;;;;;;13.10;4.35;;;14.90;99.90;;;;;;4999145;28;20117;-65
2023/09/30 08:42:39;;;;;;;12.85;4.18;;;15.00;99.90;;;;;;5014228;28;20802;-66
2023/09/30 08:45:10;;;;;;;12.18;4.65;;;15.10;99.90;;;;;;5010512;28;20042;-66
2023/09/30 08:47:36;;;;;;;12.60;4.25;;;15.20;99.90;;;;;;5017777;28;20061;-65
2023/09/30 08:50:10;;;;;;;12.23;4.95;;;15.30;99.90;;;;;;5002221;28;20938;-66
2023/09/30 08:52:38;;;;;;;12.95;4.97;;;15.40;99.90;;;;;;5010113;28;20116;-66
2023/09/30 08:55:04;;;;;;;13.18;4.65;;;15.50;99.90;;;;;;5018435;28;20410;-65
2023/09/30 08:57:30;;;;;;;13.30;4.95;;;15.60;99.90;;;;;;5010277;28;20080;-66
2023/09/30 08:59:56;;;;;;;12.00;4.50;;;15.60;99.90;;;;;;4998059;28;20144;-65
2023/09/30 09:02:22;;;;;;;19.77;6.38;;;15.70;99.90;;;;;;5010576;28;20125;-66
2023/09/30 09:04:49;;;;;;;13.43;4.78;;;15.80;99.90;;;;;;5013363;28;20129;-66
2023/09/30 09:07:15;;;;;;;17.70;4.57;;;15.80;99.90;;;;;;5009408;28;20045;-66
2023/09/30 09:09:41;;;;;;;13.38;4.63;;;15.80;99.90;;;;;;5017745;28;20541;-66
2023/09/30 09:12:19;;;;;;;16.30;4.72;;;15.90;99.90;;;;;;5013332;28;20060;-66
2023/09/30 09:14:46;;;;;;;12.90;4.50;;;16.00;99.90;;;;;;5000163;28;20418;-65
2023/09/30 09:17:13;;;;;;;14.98;4.68;;;16.10;99.90;;;;;;4998430;28;20794;-66
2023/09/30 09:19:39;;;;;;;12.50;4.05;;;16.10;99.90;;;;;;4998907;28;20045;-66
2023/09/30 09:22:06;;;;;;;15.55;4.63;;;16.10;99.90;;;;;;5017416;28;20041;-66
2023/09/30 09:24:42;;;;;;;12.90;4.10;;;16.20;99.90;;;;;;4999376;28;20048;-66
2023/09/30 09:27:09;;;;;;;11.70;4.00;;;16.20;99.90;;;;;;5021208;28;20058;-66
2023/09/30 09:29:39;;;;;;;14.60;3.85;;;16.30;99.90;;;;;;5017728;28;20054;-66
2023/09/30 09:32:13;;;;;;;11.05;3.30;;;16.30;99.90;;;;;;5019378;28;20152;-66
2023/09/30 09:34:40;;;;;;;13.15;3.30;;;16.40;99.90;;;;;;5012430;28;20772;-66
2023/09/30 09:37:19;;;;;;;9.70;2.88;;;16.40;99.90;;;;;;5015762;28;20057;-65
2023/09/30 09:39:56;;;;;;;12.30;3.20;;;16.40;99.90;;;;;;5012670;28;20041;-66
2023/09/30 09:42:32;;;;;;;14.80;3.05;;;16.50;99.90;;;;;;5018823;28;20094;-65
2023/09/30 09:45:05;;;;;;;14.40;2.95;;;16.60;99.90;;;;;;5015246;28;20060;-65
2023/09/30 09:47:32;;;;;;;15.98;4.38;;;16.60;99.90;;;;;;5041208;28;20084;-65
2023/09/30 09:49:59;;;;;;;18.67;3.17;;;16.60;99.90;;;;;;5001575;28;20049;-65
2023/09/30 09:52:26;;;;;;;13.48;2.70;;;16.60;99.90;;;;;;5020437;28;20137;-65
2023/09/30 09:54:52;;;;;;;12.00;2.75;;;16.70;99.90;;;;;;5004352;28;20050;-65
2023/09/30 09:57:18;;;;;;;11.88;2.58;;;16.80;99.90;;;;;;5023807;28;20502;-65
2023/09/30 09:59:47;;;;;;;13.40;2.78;;;16.80;99.90;;;;;;5024240;28;20534;-65
2023/09/30 10:02:15;;;;;;;14.43;3.45;;;16.80;99.90;;;;;;5024431;28;20136;-66
2023/09/30 10:04:47;;;;;;;9.85;2.33;;;16.90;99.90;;;;;;5007643;28;20497;-66
2023/09/30 10:07:21;;;;;;;14.00;3.33;;;16.90;99.90;;;;;;5007418;28;20045;-66
2023/09/30 10:09:50;;;;;;;11.32;2.58;;;16.90;99.90;;;;;;5019881;28;20092;-69
2023/09/30 10:12:17;;;;;;;14.05;2.30;;;17.00;99.90;;;;;;5021534;28;20056;-69
2023/09/30 10:14:44;;;;;;;11.30;2.55;;;17.00;99.90;;;;;;5013564;28;20380;-66
2023/09/30 10:17:10;;;;;;;10.15;2.13;;;17.00;99.90;;;;;;5021809;28;20619;-66
2023/09/30 10:19:35;;;;;;;10.25;2.00;;;17.00;99.90;;;;;;5019323;28;21789;-65
2023/09/30 10:22:17;;;;;;;12.80;2.50;;;17.00;99.90;;;;;;5018468;28;20045;-69
2023/09/30 10:24:43;;;;;;;12.18;2.70;;;17.00;99.90;;;;;;4999183;28;20057;-68
2023/09/30 10:27:24;;;;;;;10.98;1.92;;;16.90;99.90;;;;;;5019211;28;20716;-68
2023/09/30 10:29:56;;;;;;;;;;;16.90;99.90;;;;;;5003187;28;20058;-69
2023/09/30 10:32:22;;;;;;;12.98;2.17;;;16.90;99.90;;;;;;5023491;28;19928;-68
2023/09/30 10:34:49;;;;;;;13.63;2.60;;;16.90;99.90;;;;;;5009888;28;20057;-68
2023/09/30 10:37:24;;;;;;;11.00;1.80;;;16.90;99.90;;;;;;5001905;28;20438;-69
2023/09/30 10:39:55;;;;;;;11.10;2.15;;;17.00;99.90;;;;;;5009794;28;20041;-68
2023/09/30 10:42:46;;;;;;;12.52;2.03;;;17.00;99.90;;;;;;4999823;28;20072;-68
2023/09/30 10:45:43;;;;;;;10.85;2.13;;;17.10;99.90;;;;;;5010953;28;20682;-69
2023/09/30 10:48:33;;;;;;;10.32;2.10;;;17.20;99.90;;;;;;5008172;28;20054;-66
2023/09/30 10:51:04;;;;;;;14.80;2.90;;;17.30;99.90;;;;;;5003125;28;20579;-66
2023/09/30 10:53:30;;;;;;;10.10;2.35;;;17.30;99.90;;;;;;5010270;28;20054;-66
2023/09/30 10:56:00;;;;;;;9.18;1.85;;;17.40;99.90;;;;;;5003984;28;20064;-64
2023/09/30 10:58:45;;;;;;;12.07;1.77;;;17.20;99.90;;;;;;5006615;28;20042;-65
2023/09/30 11:01:21;;;;;;;11.63;2.10;;;17.40;99.90;;;;;;5012325;28;20049;-65
2023/09/30 11:03:49;;;;;;;10.13;1.80;;;17.40;99.90;;;;;;4998523;28;20057;-65
2023/09/30 11:06:20;;;;;;;9.45;1.63;;;17.30;99.90;;;;;;5002436;28;20053;-65
2023/09/30 11:09:00;;;;;;;5.70;1.45;;;17.40;99.90;;;;;;4998265;28;20439;-66
2023/09/30 11:11:37;;;;;;;14.65;2.15;;;17.30;99.90;;;;;;5002250;28;20546;-65
2023/09/30 11:14:05;;;;;;;11.43;1.70;;;17.30;99.90;;;;;;5003096;28;20116;-66
2023/09/30 11:16:43;;;;;;;12.80;2.00;;;17.30;99.90;;;;;;5009894;28;20533;-66
2023/09/30 11:19:10;;;;;;;9.77;2.25;;;17.30;99.90;;;;;;5015804;28;20136;-66
2023/09/30 11:21:36;;;;;;;10.82;1.95;;;17.20;99.90;;;;;;5004700;28;20045;-66
2023/09/30 11:24:02;;;;;;;10.38;1.90;;;17.20;99.90;;;;;;5006400;28;20050;-66
2023/09/30 11:26:32;;;;;;;7.97;1.50;;;17.20;99.90;;;;;;4996914;28;20100;-66
2023/09/30 11:29:12;;;;;;;9.93;1.70;;;17.20;99.90;;;;;;5000288;28;20411;-66
2023/09/30 11:31:39;;;;;;;8.25;1.80;;;17.20;99.90;;;;;;4999966;28;20041;-67
2023/09/30 11:34:06;;;;;;;9.38;2.33;;;17.10;99.90;;;;;;4992050;28;20510;-69
2023/09/30 11:36:35;;;;;;;8.15;2.67;;;17.10;99.90;;;;;;5002009;28;20060;-69
2023/09/30 11:39:03;;;;;;;7.32;1.73;;;17.10;99.90;;;;;;5017219;28;20057;-69
2023/09/30 11:41:39;;;;;;;12.10;2.55;;;17.10;99.90;;;;;;5004924;28;20041;-69
2023/09/30 11:44:11;;;;;;;9.40;1.95;;;17.10;99.90;;;;;;5006478;28;20049;-69
2023/09/30 11:47:10;;;;;;;11.80;2.22;;;17.10;99.90;;;;;;4993587;28;20054;-69
2023/09/30 11:49:38;;;;;;;10.20;1.77;;;17.10;99.90;;;;;;4981250;28;20046;-69
2023/09/30 11:52:07;;;;;;;13.40;1.88;;;17.10;99.90;;;;;;4990972;28;20053;-69
2023/09/30 11:54:41;;;;;;;14.77;2.30;;;17.20;99.90;;;;;;5003415;28;20135;-69
2023/09/30 11:57:11;;;;;;;11.70;1.92;;;17.20;99.90;;;;;;5023273;28;20175;-69
2023/09/30 11:59:39;;;;;;;8.33;1.60;;;17.30;99.90;;;;;;4988419;28;20391;-69
2023/09/30 12:02:10;;;;;;;12.02;1.90;;;17.30;99.90;;;;;;4984444;28;20122;-69
2023/09/30 12:04:37;;;;;;;12.13;2.10;;;17.40;99.90;;;;;;5000099;28;20052;-70
2023/09/30 12:07:03;;;;;;;12.20;2.10;;;17.40;99.90;;;;;;5001378;28;20683;-69
2023/09/30 12:09:30;;;;;;;9.55;1.70;;;17.40;99.90;;;;;;4998195;28;20440;-69
2023/09/30 12:11:57;;;;;;;10.95;1.80;;;17.50;99.90;;;;;;4980174;28;20063;-69
2023/09/30 12:14:26;;;;;;;8.07;1.98;;;17.50;99.90;;;;;;4994803;28;20044;-69
2023/09/30 12:16:52;;;;;;;12.60;1.95;;;17.60;99.90;;;;;;5020940;28;20110;-69
2023/09/30 12:19:18;;;;;;;8.00;1.63;;;17.60;99.90;;;;;;4992499;28;20454;-69
2023/09/30 12:21:46;;;;;;;9.55;1.80;;;17.60;99.90;;;;;;4996781;28;20073;-69
2023/09/30 12:24:16;;;;;;;10.57;2.03;;;17.60;99.90;;;;;;5001704;28;20089;-69
2023/09/30 12:26:52;;;;;;;12.27;1.90;;;17.60;99.90;;;;;;5003440;28;20050;-69
2023/09/30 12:29:21;;;;;;;9.90;1.63;;;17.60;99.90;;;;;;4995318;28;20325;-69
2023/09/30 12:31:48;;;;;;;9.05;1.55;;;17.70;99.90;;;;;;4998165;28;20049;-69
2023/09/30 12:34:26;;;;;;;12.35;1.90;;;17.70;99.90;;;;;;5065638;27;20544;-69
2023/09/30 12:36:52;;;;;;;9.45;1.65;;;17.70;99.90;;;;;;5036761;28;20180;-69
2023/09/30 12:39:23;;;;;;;9.40;1.75;;;17.70;99.90;;;;;;5036589;28;20303;-69
2023/09/30 12:41:49;;;;;;;8.00;1.63;;;17.70;99.90;;;;;;5050860;28;20062;-69